This is the latest recevied weather packets stored in our database for station/object SQ5AAG-2. If no packets are shown the sender has not sent any weather packets the latest 1 day(s).
| Time | Temp. | Humidity | Pressure | Rain* | Wind** | Luminosity | Snow |
|---|---|---|---|---|---|---|---|
| 1778087432 | 25° C | 43% | 990.3 hPa | 0 mm | - | - | - |
| 1778086531 | 23.89° C | 45% | 990.3 hPa | 0 mm | - | - | - |
| 1778085933 | 23.89° C | 44% | 990.3 hPa | 0 mm | - | - | - |
| 1778085330 | 24.44° C | 43% | 990.1 hPa | 0 mm | - | - | - |
| 1778084429 | 24.44° C | 42% | 990.1 hPa | 0 mm | - | - | - |
| 1778083528 | 27.22° C | 38% | 990.1 hPa | 0 mm | - | - | - |
| 1778083228 | 29.44° C | 37% | 990.2 hPa | 0 mm | - | - | - |
| 1778082929 | 29.44° C | 37% | 990 hPa | 0 mm | - | - | - |
| 1778082327 | 26.11° C | 40% | 990.3 hPa | 0 mm | - | - | - |
| 1778080525 | 24.44° C | 43% | 990.4 hPa | 0 mm | - | - | - |
| 1778079624 | 24.44° C | 42% | 990.4 hPa | 0 mm | - | - | - |
| 1778079324 | 25° C | 42% | 990.5 hPa | 0 mm | - | - | - |
| 1778078423 | 25.56° C | 41% | 990.4 hPa | 0 mm | - | - | - |
| 1778078124 | 25.56° C | 41% | 990.3 hPa | 0 mm | - | - | - |
| 1778077522 | 25° C | 41% | 990.1 hPa | 0 mm | - | - | - |
| 1778077222 | 25° C | 41% | 990.2 hPa | 0 mm | - | - | - |
| 1778075120 | 25.56° C | 41% | 990.2 hPa | 0 mm | - | - | - |
| 1778074219 | 25° C | 41% | 990.2 hPa | 0 mm | - | - | - |
| 1778073318 | 25.56° C | 41% | 990.1 hPa | 0 mm | - | - | - |
| 1778073018 | 25.56° C | 41% | 990 hPa | 0 mm | - | - | - |
| 1778071216 | 25° C | 43% | 990.3 hPa | 0 mm | - | - | - |
| 1778070916 | 25° C | 43% | 990.3 hPa | 0 mm | - | - | - |
| 1778070315 | 23.89° C | 44% | 990.5 hPa | 0 mm | - | - | - |
| 1778068903 | 25° C | 42% | 990.3 hPa | 0 mm | - | - | - |
| 1778068002 | 25.56° C | 41% | 990.2 hPa | 0 mm | - | - | - |
* Rain latest hour (hover to see other rain measurements)
** Current wind speed in m/s (hover to see current wind gust speed)